createdAt,value
2019-04-30T00:02:09.628Z,99.90
2019-04-30T00:04:40.525Z,99.90
2019-04-30T00:07:10.297Z,99.90
2019-04-30T00:09:36.872Z,99.90
2019-04-30T00:12:05.536Z,99.90
2019-04-30T00:14:38.626Z,99.90
2019-04-30T00:17:01.550Z,99.90
2019-04-30T00:19:28.536Z,99.90
2019-04-30T00:22:00.156Z,99.90
2019-04-30T00:24:25.964Z,99.90
2019-04-30T00:26:52.869Z,99.90
2019-04-30T00:29:26.988Z,99.90
2019-04-30T00:31:48.397Z,99.90
2019-04-30T00:34:15.250Z,99.90
2019-04-30T00:36:42.309Z,99.90
2019-04-30T00:39:13.226Z,99.90
2019-04-30T00:41:39.842Z,99.90
2019-04-30T00:44:06.908Z,99.90
2019-04-30T00:46:36.257Z,99.90
2019-04-30T00:49:09.249Z,99.90
2019-04-30T00:51:31.981Z,99.90
2019-04-30T00:53:58.864Z,99.90
2019-04-30T00:56:28.205Z,99.90
2019-04-30T00:58:57.451Z,99.90
2019-04-30T01:01:48.087Z,99.90
2019-04-30T01:04:34.942Z,99.90
2019-04-30T01:07:05.198Z,99.90
2019-04-30T01:09:31.203Z,99.90
2019-04-30T01:11:57.932Z,99.90
2019-04-30T01:14:28.350Z,99.90
2019-04-30T01:16:53.316Z,99.90
2019-04-30T01:19:29.576Z,99.90
2019-04-30T01:21:50.787Z,99.90
2019-04-30T01:24:19.036Z,99.90
2019-04-30T01:26:46.451Z,99.90
2019-04-30T01:29:13.395Z,99.90
2019-04-30T01:31:40.814Z,99.90
2019-04-30T01:34:12.420Z,99.90
2019-04-30T01:36:36.787Z,99.90
2019-04-30T01:39:04.999Z,99.90
2019-04-30T01:41:31.837Z,99.90
2019-04-30T01:43:58.593Z,99.90
2019-04-30T01:46:25.324Z,99.90
2019-04-30T01:48:52.164Z,99.90
2019-04-30T01:51:21.757Z,99.90
2019-04-30T01:53:48.476Z,99.90
2019-04-30T01:56:46.967Z,99.90
2019-04-30T01:59:23.634Z,99.90
2019-04-30T02:01:50.641Z,99.90
2019-04-30T02:04:17.366Z,99.90
2019-04-30T02:06:44.389Z,99.90
2019-04-30T02:09:11.328Z,99.90
2019-04-30T02:11:38.827Z,99.90
2019-04-30T02:14:06.026Z,99.90
2019-04-30T02:16:32.996Z,99.90
2019-04-30T02:18:59.931Z,99.90
2019-04-30T02:21:26.799Z,99.90
2019-04-30T02:23:53.734Z,99.90
2019-04-30T02:26:20.602Z,99.90
2019-04-30T02:28:49.380Z,99.90
2019-04-30T02:31:16.101Z,99.90
2019-04-30T02:33:45.848Z,99.90
2019-04-30T02:36:29.816Z,99.90
2019-04-30T02:38:59.488Z,99.90
2019-04-30T02:41:29.304Z,99.90
2019-04-30T02:43:59.674Z,99.90
2019-04-30T02:46:29.219Z,99.90
2019-04-30T02:48:59.814Z,99.90
2019-04-30T02:51:30.028Z,99.90
2019-04-30T02:54:23.631Z,99.90
2019-04-30T02:57:14.674Z,99.90
2019-04-30T03:00:00.294Z,99.90
2019-04-30T03:02:29.141Z,99.90
2019-04-30T03:04:56.369Z,99.90
2019-04-30T03:07:23.307Z,99.90
2019-04-30T03:09:50.105Z,99.90
2019-04-30T03:12:16.948Z,99.90
2019-04-30T03:14:43.866Z,99.90
2019-04-30T03:17:21.157Z,99.90
2019-04-30T03:20:00.216Z,99.90
2019-04-30T03:22:30.096Z,99.90
2019-04-30T03:24:59.675Z,99.90
2019-04-30T03:27:25.906Z,99.90
2019-04-30T03:29:52.664Z,99.90
2019-04-30T03:32:22.423Z,99.90
2019-04-30T03:34:51.548Z,99.90
2019-04-30T03:37:19.676Z,99.90
2019-04-30T03:39:45.510Z,99.90
2019-04-30T03:42:12.385Z,99.90
2019-04-30T03:44:40.065Z,99.90
2019-04-30T03:47:07.185Z,99.90
2019-04-30T03:49:34.085Z,99.90
2019-04-30T03:52:01.020Z,99.90
2019-04-30T03:54:29.266Z,99.90
2019-04-30T03:57:00.775Z,99.90
2019-04-30T03:59:29.815Z,99.90
2019-04-30T04:02:12.937Z,99.90
2019-04-30T04:04:52.718Z,99.90
2019-04-30T04:07:30.185Z,99.90
2019-04-30T04:10:19.708Z,99.90
2019-04-30T04:12:49.603Z,99.90
2019-04-30T04:15:15.406Z,99.90
2019-04-30T04:17:42.208Z,99.90
2019-04-30T04:20:10.583Z,99.90
2019-04-30T04:22:40.081Z,99.90
2019-04-30T04:25:06.762Z,99.90
2019-04-30T04:27:33.752Z,99.90
2019-04-30T04:30:01.332Z,99.90
2019-04-30T04:32:30.906Z,99.90
2019-04-30T04:34:59.929Z,99.90
2019-04-30T04:37:25.907Z,99.90
2019-04-30T04:39:52.799Z,99.90
2019-04-30T04:42:19.931Z,99.90
2019-04-30T04:44:49.821Z,99.90
2019-04-30T04:47:16.404Z,99.90
2019-04-30T04:49:44.140Z,99.90
2019-04-30T04:52:11.245Z,99.90
2019-04-30T04:54:40.008Z,99.90
2019-04-30T04:57:16.050Z,99.90
2019-04-30T04:59:35.771Z,99.90
2019-04-30T05:02:22.470Z,99.90
2019-04-30T05:04:49.273Z,99.90
2019-04-30T05:07:16.107Z,99.90
2019-04-30T05:09:42.847Z,99.90
2019-04-30T05:12:09.591Z,99.90
2019-04-30T05:14:38.530Z,99.90
2019-04-30T05:17:05.278Z,99.90
2019-04-30T05:19:32.023Z,99.90
2019-04-30T05:21:59.705Z,99.90
2019-04-30T05:24:28.562Z,99.90
2019-04-30T05:26:55.323Z,99.90
2019-04-30T05:29:22.071Z,99.90
2019-04-30T05:31:48.774Z,99.90
2019-04-30T05:34:15.532Z,99.90
2019-04-30T05:36:42.376Z,99.90
2019-04-30T05:39:09.363Z,99.90
2019-04-30T05:41:36.237Z,99.90
2019-04-30T05:44:03.371Z,99.90
2019-04-30T05:46:30.131Z,99.90
2019-04-30T05:48:57.007Z,99.90
2019-04-30T05:51:23.735Z,99.90
2019-04-30T05:53:50.711Z,99.90
2019-04-30T05:56:19.201Z,99.90
2019-04-30T05:58:46.317Z,99.90
2019-04-30T06:01:13.305Z,99.90
2019-04-30T06:03:40.163Z,99.90
2019-04-30T06:06:08.797Z,99.90
2019-04-30T06:09:04.687Z,99.90
2019-04-30T06:11:42.915Z,99.90
2019-04-30T06:14:28.718Z,99.50
2019-04-30T06:17:05.375Z,99.20
2019-04-30T06:19:32.314Z,98.60
2019-04-30T06:22:07.208Z,97.40
2019-04-30T06:24:30.136Z,96.80
2019-04-30T06:26:58.914Z,96.30
2019-04-30T06:29:26.079Z,95.80
2019-04-30T06:31:53.343Z,94.50
2019-04-30T06:34:21.082Z,93.90
2019-04-30T06:36:53.162Z,93.50
2019-04-30T06:39:18.761Z,91.80
2019-04-30T06:41:46.065Z,89.10
2019-04-30T06:44:13.343Z,88.60
2019-04-30T06:46:41.211Z,86.60
2019-04-30T06:49:09.568Z,83.80
2019-04-30T06:51:36.751Z,79.90
2019-04-30T06:54:03.699Z,78.10
2019-04-30T06:56:30.767Z,75.40
2019-04-30T06:58:59.041Z,75.60
2019-04-30T07:01:26.104Z,73.30
2019-04-30T07:03:53.571Z,71.50
2019-04-30T07:06:29.180Z,69.90
2019-04-30T07:09:20.862Z,70.30
2019-04-30T07:11:52.732Z,67.60
2019-04-30T07:14:19.630Z,60.70
2019-04-30T07:16:46.426Z,61.00
2019-04-30T07:19:13.307Z,60.60
2019-04-30T07:21:42.727Z,60.70
2019-04-30T07:24:09.401Z,57.20
2019-04-30T07:26:36.358Z,54.60
2019-04-30T07:29:03.329Z,52.00
2019-04-30T07:31:30.216Z,51.40
2019-04-30T07:33:59.313Z,51.70
2019-04-30T07:36:44.866Z,50.10
2019-04-30T07:38:56.821Z,48.50
2019-04-30T07:41:23.260Z,46.20
2019-04-30T07:43:50.026Z,44.30
2019-04-30T07:46:16.780Z,46.30
2019-04-30T07:48:43.652Z,45.00
2019-04-30T07:51:11.371Z,46.60
2019-04-30T07:53:40.410Z,44.90
2019-04-30T07:56:23.487Z,44.10
2019-04-30T07:58:36.175Z,44.80
2019-04-30T08:01:03.208Z,43.70
2019-04-30T08:04:08.883Z,42.00
2019-04-30T08:06:36.039Z,42.70
2019-04-30T08:09:05.873Z,43.10
2019-04-30T08:11:34.343Z,42.00
2019-04-30T08:14:02.010Z,42.50
2019-04-30T08:16:29.206Z,43.80
2019-04-30T08:18:55.922Z,44.30
2019-04-30T08:21:22.883Z,42.20
2019-04-30T08:23:49.759Z,42.40
2019-04-30T08:26:18.587Z,43.40
2019-04-30T08:28:45.447Z,41.90
2019-04-30T08:31:12.326Z,39.80
2019-04-30T08:33:40.241Z,40.40
2019-04-30T08:36:09.043Z,39.10
2019-04-30T08:38:35.926Z,39.70
2019-04-30T08:41:02.907Z,37.80
2019-04-30T08:43:29.791Z,39.60
2019-04-30T08:45:56.844Z,39.90
2019-04-30T08:48:23.735Z,40.90
2019-04-30T08:50:50.859Z,41.70
2019-04-30T08:53:27.530Z,37.30
2019-04-30T08:55:49.086Z,38.80
2019-04-30T08:58:15.778Z,37.80
2019-04-30T09:00:42.836Z,38.10
2019-04-30T09:03:10.012Z,38.90
2019-04-30T09:05:55.103Z,38.00
2019-04-30T09:08:21.986Z,36.70
2019-04-30T09:10:49.109Z,37.90
2019-04-30T09:13:16.096Z,37.90
2019-04-30T09:15:42.862Z,34.90
2019-04-30T09:18:12.706Z,35.80
2019-04-30T09:20:39.100Z,35.70
2019-04-30T09:23:07.203Z,36.50
2019-04-30T09:25:34.095Z,34.70
2019-04-30T09:28:01.127Z,33.20
2019-04-30T09:30:29.772Z,34.40
2019-04-30T09:32:56.753Z,36.70
2019-04-30T09:35:23.464Z,35.80
2019-04-30T09:37:58.773Z,34.60
2019-04-30T09:40:21.174Z,35.60
2019-04-30T09:42:48.779Z,36.30
2019-04-30T09:45:15.884Z,35.90
2019-04-30T09:47:42.762Z,34.90
2019-04-30T09:50:11.655Z,36.40
2019-04-30T09:52:39.588Z,35.00
2019-04-30T09:55:07.036Z,34.00
2019-04-30T09:57:33.971Z,32.80
2019-04-30T10:00:00.938Z,33.40
2019-04-30T10:02:29.111Z,33.40
2019-04-30T10:04:56.626Z,34.60
2019-04-30T10:07:24.143Z,34.50
2019-04-30T10:09:51.059Z,32.90
2019-04-30T10:12:19.604Z,33.30
2019-04-30T10:14:46.608Z,35.10
2019-04-30T10:17:23.490Z,33.20
2019-04-30T10:19:50.220Z,31.60
2019-04-30T10:22:17.104Z,31.20
2019-04-30T10:24:43.844Z,31.70
2019-04-30T10:27:13.409Z,32.20
2019-04-30T10:29:41.245Z,32.30
2019-04-30T10:32:08.849Z,32.00
2019-04-30T10:34:35.680Z,32.60
2019-04-30T10:37:03.056Z,31.80
2019-04-30T10:39:30.188Z,33.10
2019-04-30T10:41:57.175Z,33.20
2019-04-30T10:44:24.151Z,32.30
2019-04-30T10:46:51.091Z,34.50
2019-04-30T10:49:19.211Z,35.10
2019-04-30T10:51:46.369Z,33.90
2019-04-30T10:54:23.240Z,33.10
2019-04-30T10:56:41.980Z,33.10
2019-04-30T10:59:08.818Z,30.90
2019-04-30T11:01:35.787Z,30.00
2019-04-30T11:04:03.292Z,32.10
2019-04-30T11:06:29.994Z,30.10
2019-04-30T11:08:56.839Z,30.00
2019-04-30T11:11:23.795Z,30.20
2019-04-30T11:13:50.642Z,30.50
2019-04-30T11:16:18.851Z,30.20
2019-04-30T11:18:46.081Z,31.90
2019-04-30T11:21:13.426Z,31.60
2019-04-30T11:23:40.749Z,32.00
2019-04-30T11:26:08.469Z,32.70
2019-04-30T11:28:35.789Z,32.60
2019-04-30T11:31:32.757Z,32.20
2019-04-30T11:34:00.839Z,33.00
2019-04-30T11:36:29.223Z,32.90
2019-04-30T11:38:56.211Z,32.90
2019-04-30T11:41:30.990Z,31.90
2019-04-30T11:43:51.975Z,31.10
2019-04-30T11:46:49.620Z,29.40
2019-04-30T11:49:16.595Z,29.90
2019-04-30T11:51:43.547Z,31.10
2019-04-30T11:54:10.491Z,31.30
2019-04-30T11:56:38.398Z,31.20
2019-04-30T11:59:05.655Z,31.70
2019-04-30T12:01:32.492Z,31.70
2019-04-30T12:03:59.857Z,31.40
2019-04-30T12:06:28.551Z,32.10
2019-04-30T12:09:24.167Z,32.30
2019-04-30T12:11:51.134Z,32.80
2019-04-30T12:14:18.204Z,33.70
2019-04-30T12:16:46.775Z,34.40
2019-04-30T12:19:13.763Z,34.70
2019-04-30T12:21:40.482Z,34.20
2019-04-30T12:24:07.200Z,34.50
2019-04-30T12:26:34.127Z,33.80
2019-04-30T12:29:00.944Z,34.00
2019-04-30T12:31:29.648Z,34.60
2019-04-30T12:33:56.667Z,35.50
2019-04-30T12:36:23.556Z,35.20
2019-04-30T12:38:50.283Z,35.90
2019-04-30T12:41:17.291Z,36.70
2019-04-30T12:43:44.134Z,36.70
2019-04-30T12:46:11.011Z,38.70
2019-04-30T12:48:56.291Z,39.00
2019-04-30T12:51:45.971Z,41.20
2019-04-30T12:54:18.792Z,41.60
2019-04-30T12:57:03.371Z,42.80
2019-04-30T12:59:30.455Z,43.00
2019-04-30T13:01:59.240Z,44.80
2019-04-30T13:04:26.087Z,45.20
2019-04-30T13:06:53.471Z,46.30
2019-04-30T13:09:21.437Z,46.60
2019-04-30T13:11:50.623Z,47.00
2019-04-30T13:14:19.411Z,48.30
2019-04-30T13:16:49.038Z,47.90
2019-04-30T13:19:15.987Z,47.80
2019-04-30T13:21:42.962Z,49.80
2019-04-30T13:24:09.921Z,49.40
2019-04-30T13:26:37.135Z,49.70
2019-04-30T13:29:17.875Z,50.70
2019-04-30T13:31:44.946Z,51.30
2019-04-30T13:34:30.226Z,50.10
2019-04-30T13:36:57.114Z,50.50
2019-04-30T13:39:32.171Z,50.30
2019-04-30T13:42:14.548Z,51.20
2019-04-30T13:44:39.202Z,51.60
2019-04-30T13:47:06.058Z,51.60
2019-04-30T13:49:32.950Z,51.80
2019-04-30T13:51:59.839Z,52.10
2019-04-30T13:54:26.727Z,52.10
2019-04-30T13:56:53.575Z,50.90
2019-04-30T13:59:20.309Z,52.20
2019-04-30T14:01:48.832Z,52.70
2019-04-30T14:04:44.420Z,53.70
2019-04-30T14:07:39.958Z,54.60
2019-04-30T14:10:06.287Z,55.60
2019-04-30T14:12:36.287Z,52.50
2019-04-30T14:15:03.935Z,50.60
2019-04-30T14:17:30.755Z,49.40
2019-04-30T14:19:57.747Z,50.30
2019-04-30T14:22:24.585Z,50.20
2019-04-30T14:24:51.323Z,51.70
2019-04-30T14:27:18.315Z,50.80
2019-04-30T14:29:45.324Z,49.90
2019-04-30T14:32:12.197Z,49.30
2019-04-30T14:34:39.525Z,50.70
2019-04-30T14:37:06.499Z,52.00
2019-04-30T14:39:33.682Z,52.70
2019-04-30T14:42:01.446Z,54.10
2019-04-30T14:44:31.657Z,55.10
2019-04-30T14:47:11.936Z,54.10
2019-04-30T14:50:01.900Z,53.20
2019-04-30T14:52:20.529Z,53.40
2019-04-30T14:54:55.915Z,54.10
2019-04-30T14:57:51.075Z,55.20
2019-04-30T15:00:35.888Z,54.50
2019-04-30T15:03:09.346Z,55.40
2019-04-30T15:05:40.524Z,55.70
2019-04-30T15:08:05.659Z,56.30
2019-04-30T15:10:32.531Z,56.00
2019-04-30T15:13:00.234Z,55.20
2019-04-30T15:15:29.216Z,54.90
2019-04-30T15:17:56.066Z,55.50
2019-04-30T15:20:22.888Z,55.80
2019-04-30T15:23:04.004Z,55.50
2019-04-30T15:25:34.366Z,56.60
2019-04-30T15:27:59.511Z,56.10
2019-04-30T15:30:26.508Z,56.90
2019-04-30T15:32:59.361Z,58.20
2019-04-30T15:35:26.347Z,57.80
2019-04-30T15:37:55.000Z,58.00
2019-04-30T15:40:22.021Z,57.70
2019-04-30T15:42:50.775Z,57.60
2019-04-30T15:45:19.134Z,57.40
2019-04-30T15:47:46.416Z,57.90
2019-04-30T15:50:13.844Z,59.20
2019-04-30T15:52:40.678Z,59.30
2019-04-30T15:55:09.167Z,60.60
2019-04-30T15:57:54.703Z,59.20
2019-04-30T16:00:22.118Z,57.70
2019-04-30T16:02:57.482Z,58.10
2019-04-30T16:05:42.416Z,57.80
2019-04-30T16:08:32.447Z,58.50
2019-04-30T16:11:19.482Z,58.50
2019-04-30T16:14:11.923Z,58.90
2019-04-30T16:16:41.090Z,58.80
2019-04-30T16:19:09.166Z,59.70
2019-04-30T16:21:36.130Z,58.90
2019-04-30T16:24:03.283Z,59.00
2019-04-30T16:26:30.128Z,59.80
2019-04-30T16:28:58.632Z,60.00
2019-04-30T16:31:25.867Z,59.60
2019-04-30T16:33:52.744Z,59.80
2019-04-30T16:36:19.599Z,60.40
2019-04-30T16:38:46.509Z,60.80
2019-04-30T16:41:13.547Z,60.90
2019-04-30T16:43:40.451Z,61.10
2019-04-30T16:46:07.399Z,61.60
2019-04-30T16:48:34.143Z,60.80
2019-04-30T16:51:01.093Z,61.80
2019-04-30T16:53:27.942Z,62.50
2019-04-30T16:55:54.799Z,62.20
2019-04-30T16:58:21.643Z,61.90
2019-04-30T17:00:49.294Z,60.50
2019-04-30T17:03:23.893Z,60.20
2019-04-30T17:05:56.995Z,60.60
2019-04-30T17:08:43.507Z,60.00
2019-04-30T17:11:18.135Z,61.80
2019-04-30T17:13:48.880Z,63.10
2019-04-30T17:16:19.469Z,62.90
2019-04-30T17:18:46.430Z,62.60
2019-04-30T17:21:13.320Z,63.00
2019-04-30T17:23:40.117Z,62.70
2019-04-30T17:26:06.963Z,63.40
2019-04-30T17:28:33.802Z,64.00
2019-04-30T17:31:00.893Z,64.20
2019-04-30T17:33:27.944Z,65.00
2019-04-30T17:35:54.802Z,66.40
2019-04-30T17:38:21.678Z,66.10
2019-04-30T17:40:49.701Z,66.10
2019-04-30T17:43:16.988Z,65.70
2019-04-30T17:45:43.951Z,66.10
2019-04-30T17:48:10.904Z,66.30
2019-04-30T17:50:39.698Z,66.90
2019-04-30T17:53:08.947Z,67.00
2019-04-30T17:55:35.636Z,67.10
2019-04-30T17:58:02.594Z,67.50
2019-04-30T18:00:31.376Z,69.00
2019-04-30T18:02:58.402Z,68.50
2019-04-30T18:05:25.399Z,69.20
2019-04-30T18:07:53.557Z,69.40
2019-04-30T18:10:20.955Z,70.40
2019-04-30T18:12:48.163Z,70.90
2019-04-30T18:15:18.515Z,71.00
2019-04-30T18:17:50.814Z,70.70
2019-04-30T18:20:25.855Z,71.50
2019-04-30T18:23:18.936Z,71.20
2019-04-30T18:25:49.900Z,72.50
2019-04-30T18:28:16.769Z,73.30
2019-04-30T18:30:43.616Z,73.90
2019-04-30T18:33:13.451Z,74.30
2019-04-30T18:35:40.319Z,73.70
2019-04-30T18:38:07.159Z,74.50
2019-04-30T18:40:34.238Z,75.10
2019-04-30T18:43:01.173Z,75.70
2019-04-30T18:45:28.835Z,76.40
2019-04-30T18:47:55.963Z,77.90
2019-04-30T18:50:22.855Z,79.40
2019-04-30T18:52:51.723Z,81.30
2019-04-30T18:55:19.283Z,81.40
2019-04-30T18:57:56.103Z,81.70
2019-04-30T19:00:19.876Z,82.80
2019-04-30T19:02:48.640Z,83.60
2019-04-30T19:05:23.791Z,84.30
2019-04-30T19:07:55.940Z,85.50
2019-04-30T19:10:48.673Z,85.30
2019-04-30T19:13:25.808Z,86.10
2019-04-30T19:16:19.786Z,87.60
2019-04-30T19:19:03.406Z,87.30
2019-04-30T19:21:30.790Z,87.70
2019-04-30T19:23:58.661Z,88.20
2019-04-30T19:26:25.635Z,89.40
2019-04-30T19:28:52.523Z,89.50
2019-04-30T19:31:19.937Z,90.00
2019-04-30T19:33:48.789Z,90.30
2019-04-30T19:36:20.676Z,90.50
2019-04-30T19:38:46.009Z,90.50
2019-04-30T19:41:12.823Z,90.50
2019-04-30T19:43:39.644Z,90.70
2019-04-30T19:46:06.454Z,90.70
2019-04-30T19:48:33.290Z,91.00
2019-04-30T19:51:00.192Z,91.10
2019-04-30T19:53:26.949Z,91.30
2019-04-30T19:55:53.870Z,91.80
2019-04-30T19:58:29.458Z,91.70
2019-04-30T20:00:49.973Z,92.00
2019-04-30T20:03:17.063Z,91.80
2019-04-30T20:05:43.855Z,92.00
2019-04-30T20:08:11.097Z,92.00
2019-04-30T20:10:39.884Z,92.30
2019-04-30T20:13:06.944Z,92.10
2019-04-30T20:15:33.863Z,92.20
2019-04-30T20:18:01.872Z,92.30
2019-04-30T20:20:28.858Z,92.50
2019-04-30T20:22:55.863Z,92.50
2019-04-30T20:25:22.635Z,92.50
2019-04-30T20:27:49.651Z,92.50
2019-04-30T20:30:16.924Z,92.60
2019-04-30T20:32:43.767Z,92.60
2019-04-30T20:35:10.752Z,92.40
2019-04-30T20:37:55.916Z,92.60
2019-04-30T20:40:24.929Z,92.30
2019-04-30T20:42:51.875Z,92.50
2019-04-30T20:45:18.885Z,92.40
2019-04-30T20:47:45.753Z,92.50
2019-04-30T20:50:14.907Z,92.80
2019-04-30T20:52:41.624Z,92.80
2019-04-30T20:55:09.258Z,92.70
2019-04-30T20:57:36.220Z,93.00
2019-04-30T21:00:03.735Z,92.70
2019-04-30T21:02:30.540Z,92.70
2019-04-30T21:04:57.294Z,92.60
2019-04-30T21:07:24.028Z,92.60
2019-04-30T21:09:50.887Z,92.60
2019-04-30T21:12:18.807Z,92.60
2019-04-30T21:14:45.760Z,92.60
2019-04-30T21:17:12.543Z,92.80
2019-04-30T21:19:39.315Z,93.00
2019-04-30T21:22:06.203Z,92.80
2019-04-30T21:24:33.082Z,92.70
2019-04-30T21:26:59.968Z,92.90
2019-04-30T21:29:26.818Z,92.90
2019-04-30T21:32:12.759Z,92.90
2019-04-30T21:34:50.749Z,92.80
2019-04-30T21:37:18.887Z,93.20
2019-04-30T21:39:45.788Z,93.00
2019-04-30T21:42:12.802Z,93.20
2019-04-30T21:44:39.710Z,93.10
2019-04-30T21:47:06.563Z,93.10
2019-04-30T21:49:33.423Z,93.20
2019-04-30T21:52:00.274Z,93.20
2019-04-30T21:54:28.336Z,93.20
2019-04-30T21:56:55.782Z,93.20
2019-04-30T21:59:24.619Z,93.30
2019-04-30T22:01:51.696Z,93.30
2019-04-30T22:04:18.558Z,93.40
2019-04-30T22:06:45.605Z,93.40
2019-04-30T22:09:13.027Z,93.50
2019-04-30T22:11:39.887Z,93.50
2019-04-30T22:14:07.051Z,93.70
2019-04-30T22:16:34.179Z,93.70
2019-04-30T22:19:01.124Z,93.90
2019-04-30T22:21:28.584Z,93.80
2019-04-30T22:23:56.859Z,94.00
2019-04-30T22:26:23.684Z,94.10
2019-04-30T22:28:50.399Z,94.20
2019-04-30T22:31:17.130Z,94.20
2019-04-30T22:33:44.115Z,94.20
2019-04-30T22:36:30.631Z,94.20
2019-04-30T22:39:26.119Z,94.30
2019-04-30T22:42:01.712Z,94.30
2019-04-30T22:44:28.435Z,94.40
2019-04-30T22:46:55.188Z,94.50
2019-04-30T22:49:21.925Z,94.60
2019-04-30T22:51:49.072Z,94.60
2019-04-30T22:54:16.047Z,94.70
2019-04-30T22:56:42.894Z,94.80
2019-04-30T22:59:09.787Z,94.90
2019-04-30T23:01:55.320Z,95.10
2019-04-30T23:04:47.663Z,95.20
2019-04-30T23:07:14.523Z,95.30
2019-04-30T23:09:41.475Z,95.50
2019-04-30T23:12:08.344Z,95.50
2019-04-30T23:14:35.196Z,95.60
2019-04-30T23:17:02.468Z,95.70
2019-04-30T23:19:29.336Z,95.80
2019-04-30T23:21:56.323Z,95.80
2019-04-30T23:24:23.055Z,95.90
2019-04-30T23:26:49.780Z,95.90
2019-04-30T23:29:16.684Z,96.20
2019-04-30T23:31:43.623Z,96.30
2019-04-30T23:34:17.646Z,96.40
2019-04-30T23:36:39.305Z,96.50
2019-04-30T23:39:08.055Z,96.70
2019-04-30T23:41:34.801Z,96.80
2019-04-30T23:44:01.803Z,96.80
2019-04-30T23:46:28.555Z,96.90
2019-04-30T23:48:55.527Z,97.30
2019-04-30T23:51:22.435Z,97.10
2019-04-30T23:53:49.351Z,97.00
2019-04-30T23:56:16.327Z,97.20
2019-04-30T23:58:43.314Z,97.30
